sensor_id;sensor_type;location;lat;lon;timestamp;P1;durP1;ratioP1;P2;durP2;ratioP2
25175;SDS011;13135;55.166;61.286;2022-12-24T00:01:19;4.27;;;3.37;;
25175;SDS011;13135;55.166;61.286;2022-12-24T00:04:05;4.03;;;3.00;;
25175;SDS011;13135;55.166;61.286;2022-12-24T00:06:50;4.57;;;3.03;;
25175;SDS011;13135;55.166;61.286;2022-12-24T00:09:35;4.80;;;2.83;;
25175;SDS011;13135;55.166;61.286;2022-12-24T00:12:18;4.03;;;2.90;;
25175;SDS011;13135;55.166;61.286;2022-12-24T00:15:06;6.43;;;3.40;;
25175;SDS011;13135;55.166;61.286;2022-12-24T00:17:52;4.40;;;3.10;;
25175;SDS011;13135;55.166;61.286;2022-12-24T00:20:37;4.53;;;3.20;;
25175;SDS011;13135;55.166;61.286;2022-12-24T00:23:21;5.43;;;3.27;;
25175;SDS011;13135;55.166;61.286;2022-12-24T00:26:05;5.20;;;2.97;;
25175;SDS011;13135;55.166;61.286;2022-12-24T00:28:51;4.23;;;2.90;;
25175;SDS011;13135;55.166;61.286;2022-12-24T00:31:36;5.27;;;3.50;;
25175;SDS011;13135;55.166;61.286;2022-12-24T00:34:22;4.53;;;3.30;;
25175;SDS011;13135;55.166;61.286;2022-12-24T00:37:08;5.20;;;3.50;;
25175;SDS011;13135;55.166;61.286;2022-12-24T00:39:52;3.43;;;2.67;;
25175;SDS011;13135;55.166;61.286;2022-12-24T00:42:37;4.63;;;3.43;;
25175;SDS011;13135;55.166;61.286;2022-12-24T00:45:21;4.57;;;2.93;;
25175;SDS011;13135;55.166;61.286;2022-12-24T00:48:05;4.60;;;3.10;;
25175;SDS011;13135;55.166;61.286;2022-12-24T00:50:50;4.00;;;3.20;;
25175;SDS011;13135;55.166;61.286;2022-12-24T00:53:34;5.83;;;3.37;;
25175;SDS011;13135;55.166;61.286;2022-12-24T00:56:24;4.17;;;3.43;;
25175;SDS011;13135;55.166;61.286;2022-12-24T01:02:14;5.67;;;3.60;;
25175;SDS011;13135;55.166;61.286;2022-12-24T01:04:58;5.47;;;3.50;;
25175;SDS011;13135;55.166;61.286;2022-12-24T01:07:43;6.53;;;3.87;;
25175;SDS011;13135;55.166;61.286;2022-12-24T01:13:18;5.43;;;3.60;;
25175;SDS011;13135;55.166;61.286;2022-12-24T01:16:03;4.33;;;3.10;;
25175;SDS011;13135;55.166;61.286;2022-12-24T01:18:47;5.33;;;3.73;;
25175;SDS011;13135;55.166;61.286;2022-12-24T01:21:32;6.27;;;4.30;;
25175;SDS011;13135;55.166;61.286;2022-12-24T01:24:16;5.90;;;3.70;;
25175;SDS011;13135;55.166;61.286;2022-12-24T01:26:59;7.37;;;4.23;;
25175;SDS011;13135;55.166;61.286;2022-12-24T01:29:44;4.80;;;3.47;;
25175;SDS011;13135;55.166;61.286;2022-12-24T01:32:29;5.50;;;3.73;;
25175;SDS011;13135;55.166;61.286;2022-12-24T01:35:13;9.10;;;4.30;;
25175;SDS011;13135;55.166;61.286;2022-12-24T01:37:57;7.07;;;3.50;;
25175;SDS011;13135;55.166;61.286;2022-12-24T01:40:41;6.20;;;3.80;;
25175;SDS011;13135;55.166;61.286;2022-12-24T01:43:28;6.13;;;4.00;;
25175;SDS011;13135;55.166;61.286;2022-12-24T01:46:19;5.30;;;3.53;;
25175;SDS011;13135;55.166;61.286;2022-12-24T01:49:02;6.03;;;3.50;;
25175;SDS011;13135;55.166;61.286;2022-12-24T01:51:50;6.70;;;3.90;;
25175;SDS011;13135;55.166;61.286;2022-12-24T01:54:35;6.07;;;3.50;;
25175;SDS011;13135;55.166;61.286;2022-12-24T01:57:21;5.73;;;3.73;;
25175;SDS011;13135;55.166;61.286;2022-12-24T02:00:07;4.83;;;3.10;;
25175;SDS011;13135;55.166;61.286;2022-12-24T02:02:52;4.33;;;3.30;;
25175;SDS011;13135;55.166;61.286;2022-12-24T02:05:45;6.67;;;4.10;;
25175;SDS011;13135;55.166;61.286;2022-12-24T02:08:31;6.87;;;4.00;;
25175;SDS011;13135;55.166;61.286;2022-12-24T02:11:17;5.77;;;3.83;;
25175;SDS011;13135;55.166;61.286;2022-12-24T02:16:55;7.43;;;4.20;;
25175;SDS011;13135;55.166;61.286;2022-12-24T02:32:01;6.90;;;4.30;;
25175;SDS011;13135;55.166;61.286;2022-12-24T02:34:52;5.00;;;3.77;;
25175;SDS011;13135;55.166;61.286;2022-12-24T02:37:37;5.77;;;3.80;;
25175;SDS011;13135;55.166;61.286;2022-12-24T02:40:22;6.93;;;3.97;;
25175;SDS011;13135;55.166;61.286;2022-12-24T02:43:09;5.03;;;3.67;;
25175;SDS011;13135;55.166;61.286;2022-12-24T02:45:54;5.63;;;3.70;;
25175;SDS011;13135;55.166;61.286;2022-12-24T02:48:36;4.63;;;3.10;;
25175;SDS011;13135;55.166;61.286;2022-12-24T02:51:21;6.07;;;3.90;;
25175;SDS011;13135;55.166;61.286;2022-12-24T02:54:05;5.23;;;3.57;;
25175;SDS011;13135;55.166;61.286;2022-12-24T02:56:54;5.97;;;3.60;;
25175;SDS011;13135;55.166;61.286;2022-12-24T02:59:42;5.00;;;3.43;;
25175;SDS011;13135;55.166;61.286;2022-12-24T03:02:31;4.77;;;3.40;;
25175;SDS011;13135;55.166;61.286;2022-12-24T03:08:28;5.57;;;3.57;;
25175;SDS011;13135;55.166;61.286;2022-12-24T03:11:14;4.80;;;3.20;;
25175;SDS011;13135;55.166;61.286;2022-12-24T03:13:59;4.37;;;3.30;;
25175;SDS011;13135;55.166;61.286;2022-12-24T03:16:44;4.13;;;2.87;;
25175;SDS011;13135;55.166;61.286;2022-12-24T03:19:28;5.20;;;3.17;;
25175;SDS011;13135;55.166;61.286;2022-12-24T03:22:12;4.93;;;3.07;;
25175;SDS011;13135;55.166;61.286;2022-12-24T03:24:56;5.50;;;4.00;;
25175;SDS011;13135;55.166;61.286;2022-12-24T03:27:41;6.60;;;3.97;;
25175;SDS011;13135;55.166;61.286;2022-12-24T03:30:26;5.30;;;3.40;;
25175;SDS011;13135;55.166;61.286;2022-12-24T03:33:10;5.03;;;4.00;;
25175;SDS011;13135;55.166;61.286;2022-12-24T03:35:54;4.70;;;3.37;;
25175;SDS011;13135;55.166;61.286;2022-12-24T03:38:38;5.60;;;3.57;;
25175;SDS011;13135;55.166;61.286;2022-12-24T03:41:23;5.07;;;3.43;;
25175;SDS011;13135;55.166;61.286;2022-12-24T03:44:07;5.17;;;3.43;;
25175;SDS011;13135;55.166;61.286;2022-12-24T03:46:54;5.40;;;3.17;;
25175;SDS011;13135;55.166;61.286;2022-12-24T03:49:38;5.30;;;3.57;;
25175;SDS011;13135;55.166;61.286;2022-12-24T03:52:23;5.13;;;3.27;;
25175;SDS011;13135;55.166;61.286;2022-12-24T03:55:08;5.67;;;3.80;;
25175;SDS011;13135;55.166;61.286;2022-12-24T03:57:54;5.47;;;3.70;;
25175;SDS011;13135;55.166;61.286;2022-12-24T04:00:41;6.67;;;4.80;;
25175;SDS011;13135;55.166;61.286;2022-12-24T04:03:26;6.63;;;4.33;;
25175;SDS011;13135;55.166;61.286;2022-12-24T04:06:12;5.97;;;3.83;;
25175;SDS011;13135;55.166;61.286;2022-12-24T04:08:56;7.00;;;4.10;;
25175;SDS011;13135;55.166;61.286;2022-12-24T04:11:40;5.67;;;3.87;;
25175;SDS011;13135;55.166;61.286;2022-12-24T04:14:21;5.20;;;3.70;;
25175;SDS011;13135;55.166;61.286;2022-12-24T04:17:07;5.33;;;3.87;;
25175;SDS011;13135;55.166;61.286;2022-12-24T04:19:52;5.97;;;4.07;;
25175;SDS011;13135;55.166;61.286;2022-12-24T04:22:37;6.70;;;4.50;;
25175;SDS011;13135;55.166;61.286;2022-12-24T04:25:22;8.30;;;4.50;;
25175;SDS011;13135;55.166;61.286;2022-12-24T04:28:06;6.83;;;4.20;;
25175;SDS011;13135;55.166;61.286;2022-12-24T04:30:59;6.93;;;4.20;;
25175;SDS011;13135;55.166;61.286;2022-12-24T04:33:44;7.13;;;4.70;;
25175;SDS011;13135;55.166;61.286;2022-12-24T04:36:28;7.03;;;4.20;;
25175;SDS011;13135;55.166;61.286;2022-12-24T04:39:12;6.63;;;4.10;;
25175;SDS011;13135;55.166;61.286;2022-12-24T04:41:55;6.60;;;4.43;;
25175;SDS011;13135;55.166;61.286;2022-12-24T04:44:45;6.37;;;4.37;;
25175;SDS011;13135;55.166;61.286;2022-12-24T04:47:29;6.00;;;3.77;;
25175;SDS011;13135;55.166;61.286;2022-12-24T04:50:16;6.63;;;4.17;;
25175;SDS011;13135;55.166;61.286;2022-12-24T04:53:00;7.33;;;4.60;;
25175;SDS011;13135;55.166;61.286;2022-12-24T04:55:45;6.57;;;3.80;;
25175;SDS011;13135;55.166;61.286;2022-12-24T04:58:30;5.73;;;4.07;;
25175;SDS011;13135;55.166;61.286;2022-12-24T05:01:18;6.63;;;4.23;;
25175;SDS011;13135;55.166;61.286;2022-12-24T05:04:02;8.30;;;4.13;;
25175;SDS011;13135;55.166;61.286;2022-12-24T05:06:46;5.50;;;4.00;;
25175;SDS011;13135;55.166;61.286;2022-12-24T05:12:21;5.40;;;3.70;;
25175;SDS011;13135;55.166;61.286;2022-12-24T05:15:06;6.03;;;3.43;;
25175;SDS011;13135;55.166;61.286;2022-12-24T05:17:51;5.67;;;3.40;;
25175;SDS011;13135;55.166;61.286;2022-12-24T05:20:36;6.23;;;4.30;;
25175;SDS011;13135;55.166;61.286;2022-12-24T05:23:21;4.37;;;3.43;;
25175;SDS011;13135;55.166;61.286;2022-12-24T05:26:16;5.40;;;3.57;;
25175;SDS011;13135;55.166;61.286;2022-12-24T05:28:58;5.40;;;3.70;;
25175;SDS011;13135;55.166;61.286;2022-12-24T05:31:41;6.00;;;3.40;;
25175;SDS011;13135;55.166;61.286;2022-12-24T05:34:26;5.23;;;3.33;;
25175;SDS011;13135;55.166;61.286;2022-12-24T05:37:10;5.57;;;2.70;;
25175;SDS011;13135;55.166;61.286;2022-12-24T05:39:57;6.30;;;2.83;;
25175;SDS011;13135;55.166;61.286;2022-12-24T05:42:42;4.87;;;3.30;;
25175;SDS011;13135;55.166;61.286;2022-12-24T05:45:27;4.73;;;3.30;;
25175;SDS011;13135;55.166;61.286;2022-12-24T05:48:12;4.23;;;3.13;;
25175;SDS011;13135;55.166;61.286;2022-12-24T05:50:58;4.23;;;2.97;;
25175;SDS011;13135;55.166;61.286;2022-12-24T05:53:39;5.13;;;3.23;;
25175;SDS011;13135;55.166;61.286;2022-12-24T05:56:23;4.30;;;3.00;;
25175;SDS011;13135;55.166;61.286;2022-12-24T05:59:08;3.97;;;2.80;;
25175;SDS011;13135;55.166;61.286;2022-12-24T06:01:53;5.23;;;3.23;;
25175;SDS011;13135;55.166;61.286;2022-12-24T06:04:46;5.23;;;3.10;;
25175;SDS011;13135;55.166;61.286;2022-12-24T06:07:32;6.20;;;4.17;;
25175;SDS011;13135;55.166;61.286;2022-12-24T06:10:17;4.77;;;3.47;;
25175;SDS011;13135;55.166;61.286;2022-12-24T06:13:04;5.20;;;3.40;;
25175;SDS011;13135;55.166;61.286;2022-12-24T06:15:48;4.87;;;3.50;;
25175;SDS011;13135;55.166;61.286;2022-12-24T06:18:34;4.53;;;2.83;;
25175;SDS011;13135;55.166;61.286;2022-12-24T06:21:17;5.27;;;3.00;;
25175;SDS011;13135;55.166;61.286;2022-12-24T06:24:01;5.53;;;3.23;;
25175;SDS011;13135;55.166;61.286;2022-12-24T06:26:45;6.50;;;3.43;;
25175;SDS011;13135;55.166;61.286;2022-12-24T06:29:30;3.87;;;2.83;;
25175;SDS011;13135;55.166;61.286;2022-12-24T06:35:05;6.23;;;3.90;;
25175;SDS011;13135;55.166;61.286;2022-12-24T06:40:40;5.50;;;3.53;;
25175;SDS011;13135;55.166;61.286;2022-12-24T06:43:24;5.40;;;3.60;;
25175;SDS011;13135;55.166;61.286;2022-12-24T06:46:07;5.47;;;3.37;;
25175;SDS011;13135;55.166;61.286;2022-12-24T06:48:52;4.37;;;3.03;;
25175;SDS011;13135;55.166;61.286;2022-12-24T06:51:36;4.83;;;3.00;;
25175;SDS011;13135;55.166;61.286;2022-12-24T06:54:20;4.63;;;3.10;;
25175;SDS011;13135;55.166;61.286;2022-12-24T06:57:05;4.03;;;2.73;;
25175;SDS011;13135;55.166;61.286;2022-12-24T06:59:50;4.53;;;3.33;;
25175;SDS011;13135;55.166;61.286;2022-12-24T07:02:35;4.10;;;3.00;;
25175;SDS011;13135;55.166;61.286;2022-12-24T07:05:19;3.80;;;2.97;;
25175;SDS011;13135;55.166;61.286;2022-12-24T07:08:03;5.53;;;3.07;;
25175;SDS011;13135;55.166;61.286;2022-12-24T07:10:48;4.73;;;3.27;;
25175;SDS011;13135;55.166;61.286;2022-12-24T07:13:33;5.30;;;3.47;;
25175;SDS011;13135;55.166;61.286;2022-12-24T07:16:18;4.23;;;3.07;;
25175;SDS011;13135;55.166;61.286;2022-12-24T07:19:07;5.90;;;3.50;;
25175;SDS011;13135;55.166;61.286;2022-12-24T07:21:52;5.00;;;3.10;;
25175;SDS011;13135;55.166;61.286;2022-12-24T07:24:36;4.63;;;3.10;;
25175;SDS011;13135;55.166;61.286;2022-12-24T07:27:21;4.87;;;3.13;;
25175;SDS011;13135;55.166;61.286;2022-12-24T07:30:06;4.53;;;2.93;;
25175;SDS011;13135;55.166;61.286;2022-12-24T07:32:50;4.60;;;3.37;;
25175;SDS011;13135;55.166;61.286;2022-12-24T07:35:35;4.33;;;3.13;;
25175;SDS011;13135;55.166;61.286;2022-12-24T07:38:20;4.33;;;3.13;;
25175;SDS011;13135;55.166;61.286;2022-12-24T07:41:05;5.60;;;3.90;;
25175;SDS011;13135;55.166;61.286;2022-12-24T07:43:46;5.30;;;3.30;;
25175;SDS011;13135;55.166;61.286;2022-12-24T07:46:30;6.43;;;3.63;;
25175;SDS011;13135;55.166;61.286;2022-12-24T07:49:15;6.30;;;3.50;;
25175;SDS011;13135;55.166;61.286;2022-12-24T07:52:00;5.00;;;3.33;;
25175;SDS011;13135;55.166;61.286;2022-12-24T07:54:44;5.33;;;3.53;;
25175;SDS011;13135;55.166;61.286;2022-12-24T07:57:28;5.70;;;4.00;;
25175;SDS011;13135;55.166;61.286;2022-12-24T08:00:13;5.87;;;3.27;;
25175;SDS011;13135;55.166;61.286;2022-12-24T08:02:58;5.67;;;3.57;;
25175;SDS011;13135;55.166;61.286;2022-12-24T08:05:43;5.17;;;3.50;;
25175;SDS011;13135;55.166;61.286;2022-12-24T08:08:28;4.33;;;3.20;;
25175;SDS011;13135;55.166;61.286;2022-12-24T08:11:11;4.60;;;3.23;;
25175;SDS011;13135;55.166;61.286;2022-12-24T08:13:58;6.60;;;3.97;;
25175;SDS011;13135;55.166;61.286;2022-12-24T08:16:43;6.43;;;3.60;;
25175;SDS011;13135;55.166;61.286;2022-12-24T08:19:28;4.30;;;2.90;;
25175;SDS011;13135;55.166;61.286;2022-12-24T08:22:12;5.53;;;3.63;;
25175;SDS011;13135;55.166;61.286;2022-12-24T08:24:58;5.37;;;3.97;;
25175;SDS011;13135;55.166;61.286;2022-12-24T08:27:41;6.83;;;3.63;;
25175;SDS011;13135;55.166;61.286;2022-12-24T08:30:28;6.03;;;4.20;;
25175;SDS011;13135;55.166;61.286;2022-12-24T08:36:08;5.00;;;3.40;;
25175;SDS011;13135;55.166;61.286;2022-12-24T08:41:42;7.07;;;4.10;;
25175;SDS011;13135;55.166;61.286;2022-12-24T08:44:27;5.63;;;4.10;;
25175;SDS011;13135;55.166;61.286;2022-12-24T08:47:11;5.20;;;4.00;;
25175;SDS011;13135;55.166;61.286;2022-12-24T08:49:56;3.13;;;2.50;;
25175;SDS011;13135;55.166;61.286;2022-12-24T08:52:41;5.40;;;3.50;;
25175;SDS011;13135;55.166;61.286;2022-12-24T08:55:27;3.90;;;2.97;;
25175;SDS011;13135;55.166;61.286;2022-12-24T08:58:13;5.53;;;3.80;;
25175;SDS011;13135;55.166;61.286;2022-12-24T09:00:59;4.30;;;3.23;;
25175;SDS011;13135;55.166;61.286;2022-12-24T09:03:50;5.10;;;3.50;;
25175;SDS011;13135;55.166;61.286;2022-12-24T09:06:34;4.60;;;3.50;;
25175;SDS011;13135;55.166;61.286;2022-12-24T09:09:19;5.47;;;3.30;;
25175;SDS011;13135;55.166;61.286;2022-12-24T09:12:03;5.20;;;3.60;;
25175;SDS011;13135;55.166;61.286;2022-12-24T09:14:46;4.53;;;3.40;;
25175;SDS011;13135;55.166;61.286;2022-12-24T09:17:28;4.60;;;3.33;;
25175;SDS011;13135;55.166;61.286;2022-12-24T09:20:13;5.33;;;3.50;;
25175;SDS011;13135;55.166;61.286;2022-12-24T09:23:00;3.93;;;3.10;;
25175;SDS011;13135;55.166;61.286;2022-12-24T09:25:47;5.97;;;3.60;;
25175;SDS011;13135;55.166;61.286;2022-12-24T09:31:27;6.30;;;3.47;;
25175;SDS011;13135;55.166;61.286;2022-12-24T09:34:14;3.57;;;2.70;;
25175;SDS011;13135;55.166;61.286;2022-12-24T09:36:58;4.10;;;3.03;;
25175;SDS011;13135;55.166;61.286;2022-12-24T09:39:43;4.00;;;3.20;;
25175;SDS011;13135;55.166;61.286;2022-12-24T09:42:27;4.77;;;3.20;;
25175;SDS011;13135;55.166;61.286;2022-12-24T09:45:21;4.23;;;2.97;;
25175;SDS011;13135;55.166;61.286;2022-12-24T09:48:11;4.17;;;2.83;;
25175;SDS011;13135;55.166;61.286;2022-12-24T09:50:58;4.50;;;3.53;;
25175;SDS011;13135;55.166;61.286;2022-12-24T09:53:46;4.60;;;3.30;;
25175;SDS011;13135;55.166;61.286;2022-12-24T09:56:40;4.83;;;3.60;;
25175;SDS011;13135;55.166;61.286;2022-12-24T09:59:25;4.87;;;3.17;;
25175;SDS011;13135;55.166;61.286;2022-12-24T10:02:12;5.53;;;3.50;;
25175;SDS011;13135;55.166;61.286;2022-12-24T10:04:57;5.20;;;3.70;;
25175;SDS011;13135;55.166;61.286;2022-12-24T10:07:48;4.97;;;3.53;;
25175;SDS011;13135;55.166;61.286;2022-12-24T10:10:37;5.50;;;3.73;;
25175;SDS011;13135;55.166;61.286;2022-12-24T10:13:25;5.23;;;3.47;;
25175;SDS011;13135;55.166;61.286;2022-12-24T10:16:13;4.43;;;3.63;;
25175;SDS011;13135;55.166;61.286;2022-12-24T10:22:18;4.10;;;3.00;;
25175;SDS011;13135;55.166;61.286;2022-12-24T10:31:07;3.97;;;2.80;;
25175;SDS011;13135;55.166;61.286;2022-12-24T10:33:54;4.03;;;3.00;;
25175;SDS011;13135;55.166;61.286;2022-12-24T10:36:37;3.93;;;2.77;;
25175;SDS011;13135;55.166;61.286;2022-12-24T10:39:24;4.93;;;3.20;;
25175;SDS011;13135;55.166;61.286;2022-12-24T10:42:09;5.53;;;3.30;;
25175;SDS011;13135;55.166;61.286;2022-12-24T10:44:54;4.70;;;3.17;;
25175;SDS011;13135;55.166;61.286;2022-12-24T10:47:39;5.33;;;3.47;;
25175;SDS011;13135;55.166;61.286;2022-12-24T10:50:30;5.27;;;3.97;;
25175;SDS011;13135;55.166;61.286;2022-12-24T10:53:13;3.60;;;2.90;;
25175;SDS011;13135;55.166;61.286;2022-12-24T10:56:00;4.27;;;2.77;;
25175;SDS011;13135;55.166;61.286;2022-12-24T10:58:44;3.30;;;2.77;;
25175;SDS011;13135;55.166;61.286;2022-12-24T11:04:25;3.20;;;2.70;;
25175;SDS011;13135;55.166;61.286;2022-12-24T11:07:11;3.23;;;2.57;;
25175;SDS011;13135;55.166;61.286;2022-12-24T11:09:57;4.00;;;3.10;;
25175;SDS011;13135;55.166;61.286;2022-12-24T11:12:45;3.77;;;2.90;;
25175;SDS011;13135;55.166;61.286;2022-12-24T11:15:42;5.23;;;3.83;;
25175;SDS011;13135;55.166;61.286;2022-12-24T11:18:26;4.60;;;3.23;;
25175;SDS011;13135;55.166;61.286;2022-12-24T11:21:11;4.77;;;3.47;;
25175;SDS011;13135;55.166;61.286;2022-12-24T11:23:56;5.27;;;3.33;;
25175;SDS011;13135;55.166;61.286;2022-12-24T11:26:42;5.57;;;3.63;;
25175;SDS011;13135;55.166;61.286;2022-12-24T11:29:26;4.70;;;3.10;;
25175;SDS011;13135;55.166;61.286;2022-12-24T11:32:16;5.53;;;3.70;;
25175;SDS011;13135;55.166;61.286;2022-12-24T11:35:08;7.13;;;4.03;;
25175;SDS011;13135;55.166;61.286;2022-12-24T11:38:09;5.77;;;3.97;;
25175;SDS011;13135;55.166;61.286;2022-12-24T11:40:56;6.90;;;4.67;;
25175;SDS011;13135;55.166;61.286;2022-12-24T11:43:46;6.77;;;4.20;;
25175;SDS011;13135;55.166;61.286;2022-12-24T11:46:35;6.83;;;4.63;;
25175;SDS011;13135;55.166;61.286;2022-12-24T11:49:23;8.93;;;5.07;;
25175;SDS011;13135;55.166;61.286;2022-12-24T11:52:19;7.37;;;4.77;;
25175;SDS011;13135;55.166;61.286;2022-12-24T11:55:13;9.60;;;5.03;;
25175;SDS011;13135;55.166;61.286;2022-12-24T11:57:57;7.27;;;4.90;;
25175;SDS011;13135;55.166;61.286;2022-12-24T12:00:43;6.53;;;4.43;;
25175;SDS011;13135;55.166;61.286;2022-12-24T12:06:27;6.70;;;4.17;;
25175;SDS011;13135;55.166;61.286;2022-12-24T12:09:24;6.87;;;4.30;;
25175;SDS011;13135;55.166;61.286;2022-12-24T12:12:14;6.80;;;4.03;;
25175;SDS011;13135;55.166;61.286;2022-12-24T12:15:02;7.33;;;3.40;;
25175;SDS011;13135;55.166;61.286;2022-12-24T12:20:42;5.00;;;2.80;;
25175;SDS011;13135;55.166;61.286;2022-12-24T12:23:28;5.67;;;2.97;;
25175;SDS011;13135;55.166;61.286;2022-12-24T12:26:13;3.33;;;2.47;;
25175;SDS011;13135;55.166;61.286;2022-12-24T12:28:57;3.70;;;2.60;;
25175;SDS011;13135;55.166;61.286;2022-12-24T12:31:42;4.43;;;3.07;;
25175;SDS011;13135;55.166;61.286;2022-12-24T12:34:29;3.50;;;2.40;;
25175;SDS011;13135;55.166;61.286;2022-12-24T12:37:13;3.93;;;2.63;;
25175;SDS011;13135;55.166;61.286;2022-12-24T12:39:56;3.10;;;2.30;;
25175;SDS011;13135;55.166;61.286;2022-12-24T12:42:40;3.57;;;2.50;;
25175;SDS011;13135;55.166;61.286;2022-12-24T12:45:29;3.23;;;2.33;;
25175;SDS011;13135;55.166;61.286;2022-12-24T12:48:14;3.43;;;2.43;;
25175;SDS011;13135;55.166;61.286;2022-12-24T12:51:13;5.60;;;3.37;;
25175;SDS011;13135;55.166;61.286;2022-12-24T12:56:51;4.47;;;3.13;;
25175;SDS011;13135;55.166;61.286;2022-12-24T12:59:37;4.90;;;3.27;;
25175;SDS011;13135;55.166;61.286;2022-12-24T13:05:28;5.30;;;3.47;;
25175;SDS011;13135;55.166;61.286;2022-12-24T13:08:17;4.73;;;3.20;;
25175;SDS011;13135;55.166;61.286;2022-12-24T13:11:25;4.63;;;3.40;;
25175;SDS011;13135;55.166;61.286;2022-12-24T13:14:19;5.67;;;3.10;;
25175;SDS011;13135;55.166;61.286;2022-12-24T13:17:28;4.13;;;3.10;;
25175;SDS011;13135;55.166;61.286;2022-12-24T13:20:17;4.23;;;2.47;;
25175;SDS011;13135;55.166;61.286;2022-12-24T13:23:11;4.27;;;3.00;;
25175;SDS011;13135;55.166;61.286;2022-12-24T13:25:56;3.47;;;2.83;;
25175;SDS011;13135;55.166;61.286;2022-12-24T13:28:41;5.13;;;3.37;;
25175;SDS011;13135;55.166;61.286;2022-12-24T13:31:28;4.83;;;2.83;;
25175;SDS011;13135;55.166;61.286;2022-12-24T13:45:57;6.33;;;3.97;;
25175;SDS011;13135;55.166;61.286;2022-12-24T13:48:41;5.70;;;3.83;;
25175;SDS011;13135;55.166;61.286;2022-12-24T13:51:26;9.13;;;3.90;;
25175;SDS011;13135;55.166;61.286;2022-12-24T13:54:11;6.23;;;4.10;;
25175;SDS011;13135;55.166;61.286;2022-12-24T13:56:57;6.27;;;4.00;;
25175;SDS011;13135;55.166;61.286;2022-12-24T13:59:41;5.97;;;3.93;;
25175;SDS011;13135;55.166;61.286;2022-12-24T14:02:26;7.27;;;4.30;;
25175;SDS011;13135;55.166;61.286;2022-12-24T14:05:18;6.83;;;4.27;;
25175;SDS011;13135;55.166;61.286;2022-12-24T14:08:07;6.47;;;3.87;;
25175;SDS011;13135;55.166;61.286;2022-12-24T14:10:57;5.27;;;3.83;;
25175;SDS011;13135;55.166;61.286;2022-12-24T14:13:49;5.43;;;3.50;;
25175;SDS011;13135;55.166;61.286;2022-12-24T14:19:37;7.77;;;4.03;;
25175;SDS011;13135;55.166;61.286;2022-12-24T14:22:19;6.57;;;4.13;;
25175;SDS011;13135;55.166;61.286;2022-12-24T14:25:18;10.57;;;4.60;;
25175;SDS011;13135;55.166;61.286;2022-12-24T14:28:04;8.20;;;4.40;;
25175;SDS011;13135;55.166;61.286;2022-12-24T14:30:58;6.70;;;4.40;;
25175;SDS011;13135;55.166;61.286;2022-12-24T14:33:48;5.47;;;3.47;;
25175;SDS011;13135;55.166;61.286;2022-12-24T14:36:30;5.87;;;4.00;;
25175;SDS011;13135;55.166;61.286;2022-12-24T14:42:18;5.73;;;3.93;;
25175;SDS011;13135;55.166;61.286;2022-12-24T14:48:32;6.97;;;4.20;;
25175;SDS011;13135;55.166;61.286;2022-12-24T14:54:18;6.90;;;3.50;;
25175;SDS011;13135;55.166;61.286;2022-12-24T14:57:18;7.87;;;4.63;;
25175;SDS011;13135;55.166;61.286;2022-12-24T15:00:04;4.73;;;3.30;;
25175;SDS011;13135;55.166;61.286;2022-12-24T15:02:50;7.37;;;4.53;;
25175;SDS011;13135;55.166;61.286;2022-12-24T15:05:33;5.43;;;4.10;;
25175;SDS011;13135;55.166;61.286;2022-12-24T15:08:18;9.20;;;4.47;;
25175;SDS011;13135;55.166;61.286;2022-12-24T15:11:02;7.77;;;4.50;;
25175;SDS011;13135;55.166;61.286;2022-12-24T15:13:46;7.23;;;4.20;;
25175;SDS011;13135;55.166;61.286;2022-12-24T15:16:30;6.77;;;4.40;;
25175;SDS011;13135;55.166;61.286;2022-12-24T15:22:20;6.30;;;3.80;;
25175;SDS011;13135;55.166;61.286;2022-12-24T15:24:58;7.57;;;3.67;;
25175;SDS011;13135;55.166;61.286;2022-12-24T15:27:42;6.07;;;3.90;;
25175;SDS011;13135;55.166;61.286;2022-12-24T15:30:27;5.87;;;3.33;;
25175;SDS011;13135;55.166;61.286;2022-12-24T15:33:14;5.03;;;3.27;;
25175;SDS011;13135;55.166;61.286;2022-12-24T15:35:59;5.83;;;3.70;;
25175;SDS011;13135;55.166;61.286;2022-12-24T15:41:36;4.33;;;3.53;;
25175;SDS011;13135;55.166;61.286;2022-12-24T15:44:21;4.50;;;2.90;;
25175;SDS011;13135;55.166;61.286;2022-12-24T15:47:06;4.40;;;2.90;;
25175;SDS011;13135;55.166;61.286;2022-12-24T15:49:50;4.10;;;2.90;;
25175;SDS011;13135;55.166;61.286;2022-12-24T15:52:37;4.23;;;2.63;;
25175;SDS011;13135;55.166;61.286;2022-12-24T15:55:24;3.50;;;2.70;;
25175;SDS011;13135;55.166;61.286;2022-12-24T15:58:31;3.43;;;2.50;;
25175;SDS011;13135;55.166;61.286;2022-12-24T16:01:24;4.80;;;2.50;;
25175;SDS011;13135;55.166;61.286;2022-12-24T16:04:11;3.53;;;2.27;;
25175;SDS011;13135;55.166;61.286;2022-12-24T16:06:56;3.90;;;2.53;;
25175;SDS011;13135;55.166;61.286;2022-12-24T16:09:41;3.47;;;2.50;;
25175;SDS011;13135;55.166;61.286;2022-12-24T16:12:23;4.33;;;2.53;;
25175;SDS011;13135;55.166;61.286;2022-12-24T16:15:11;3.57;;;2.70;;
25175;SDS011;13135;55.166;61.286;2022-12-24T16:17:54;2.87;;;2.37;;
25175;SDS011;13135;55.166;61.286;2022-12-24T16:20:46;3.63;;;2.53;;
25175;SDS011;13135;55.166;61.286;2022-12-24T16:23:33;3.10;;;2.50;;
25175;SDS011;13135;55.166;61.286;2022-12-24T16:26:16;3.33;;;2.07;;
25175;SDS011;13135;55.166;61.286;2022-12-24T16:29:08;2.90;;;2.30;;
25175;SDS011;13135;55.166;61.286;2022-12-24T16:31:53;3.53;;;2.40;;
25175;SDS011;13135;55.166;61.286;2022-12-24T16:34:38;2.93;;;2.43;;
25175;SDS011;13135;55.166;61.286;2022-12-24T16:37:23;2.80;;;2.10;;
25175;SDS011;13135;55.166;61.286;2022-12-24T16:40:12;3.03;;;2.20;;
25175;SDS011;13135;55.166;61.286;2022-12-24T16:42:58;2.83;;;2.30;;
25175;SDS011;13135;55.166;61.286;2022-12-24T16:45:42;2.63;;;1.97;;
25175;SDS011;13135;55.166;61.286;2022-12-24T16:48:26;4.73;;;2.37;;
25175;SDS011;13135;55.166;61.286;2022-12-24T16:51:08;2.73;;;2.10;;
25175;SDS011;13135;55.166;61.286;2022-12-24T16:53:58;3.73;;;2.47;;
25175;SDS011;13135;55.166;61.286;2022-12-24T16:56:42;2.80;;;2.17;;
25175;SDS011;13135;55.166;61.286;2022-12-24T16:59:31;3.00;;;1.87;;
25175;SDS011;13135;55.166;61.286;2022-12-24T17:02:16;3.07;;;2.23;;
25175;SDS011;13135;55.166;61.286;2022-12-24T17:05:00;3.13;;;2.40;;
25175;SDS011;13135;55.166;61.286;2022-12-24T17:07:44;2.87;;;2.60;;
25175;SDS011;13135;55.166;61.286;2022-12-24T17:10:28;3.60;;;2.57;;
25175;SDS011;13135;55.166;61.286;2022-12-24T17:13:12;3.33;;;2.30;;
25175;SDS011;13135;55.166;61.286;2022-12-24T17:15:56;3.30;;;2.20;;
25175;SDS011;13135;55.166;61.286;2022-12-24T17:18:41;2.43;;;2.10;;
25175;SDS011;13135;55.166;61.286;2022-12-24T17:21:26;2.93;;;2.40;;
25175;SDS011;13135;55.166;61.286;2022-12-24T17:24:11;3.17;;;2.47;;
25175;SDS011;13135;55.166;61.286;2022-12-24T17:26:56;2.83;;;2.40;;
25175;SDS011;13135;55.166;61.286;2022-12-24T17:29:38;3.20;;;2.07;;
25175;SDS011;13135;55.166;61.286;2022-12-24T17:32:24;4.13;;;2.20;;
25175;SDS011;13135;55.166;61.286;2022-12-24T17:35:09;3.57;;;2.10;;
25175;SDS011;13135;55.166;61.286;2022-12-24T17:37:55;3.53;;;2.30;;
25175;SDS011;13135;55.166;61.286;2022-12-24T17:40:40;3.10;;;2.40;;
25175;SDS011;13135;55.166;61.286;2022-12-24T17:43:24;3.50;;;2.47;;
25175;SDS011;13135;55.166;61.286;2022-12-24T17:46:11;4.37;;;2.60;;
25175;SDS011;13135;55.166;61.286;2022-12-24T17:48:53;3.63;;;2.73;;
25175;SDS011;13135;55.166;61.286;2022-12-24T17:51:38;4.53;;;2.43;;
25175;SDS011;13135;55.166;61.286;2022-12-24T17:54:23;5.43;;;2.60;;
25175;SDS011;13135;55.166;61.286;2022-12-24T17:57:06;3.87;;;2.37;;
25175;SDS011;13135;55.166;61.286;2022-12-24T17:59:52;3.50;;;2.03;;